sensor_id;sensor_type;location;lat;lon;timestamp;temperature;humidity
4757;DHT22;2392;52.578;13.426;2022-09-09T00:01:16;15.90;99.90
4757;DHT22;2392;52.578;13.426;2022-09-09T00:03:53;15.90;99.90
4757;DHT22;2392;52.578;13.426;2022-09-09T00:06:24;15.90;99.90
4757;DHT22;2392;52.578;13.426;2022-09-09T00:09:00;15.90;99.90
4757;DHT22;2392;52.578;13.426;2022-09-09T00:11:34;15.90;99.90
4757;DHT22;2392;52.578;13.426;2022-09-09T00:14:05;15.90;99.90
4757;DHT22;2392;52.578;13.426;2022-09-09T00:16:41;15.90;99.90
4757;DHT22;2392;52.578;13.426;2022-09-09T00:19:17;15.80;99.90
4757;DHT22;2392;52.578;13.426;2022-09-09T00:21:51;15.80;99.90
4757;DHT22;2392;52.578;13.426;2022-09-09T00:24:26;15.80;99.90
4757;DHT22;2392;52.578;13.426;2022-09-09T00:26:59;15.80;99.90
4757;DHT22;2392;52.578;13.426;2022-09-09T00:29:33;15.70;99.90
4757;DHT22;2392;52.578;13.426;2022-09-09T00:32:12;15.70;99.90
4757;DHT22;2392;52.578;13.426;2022-09-09T00:34:48;15.70;99.90
4757;DHT22;2392;52.578;13.426;2022-09-09T00:37:15;15.70;99.90
4757;DHT22;2392;52.578;13.426;2022-09-09T00:39:45;15.70;99.90
4757;DHT22;2392;52.578;13.426;2022-09-09T00:42:15;15.70;99.90
4757;DHT22;2392;52.578;13.426;2022-09-09T00:44:53;15.70;99.90
4757;DHT22;2392;52.578;13.426;2022-09-09T00:47:35;15.60;99.90
4757;DHT22;2392;52.578;13.426;2022-09-09T00:50:15;15.60;99.90
4757;DHT22;2392;52.578;13.426;2022-09-09T00:52:49;15.50;99.90
4757;DHT22;2392;52.578;13.426;2022-09-09T00:55:23;15.50;99.90
4757;DHT22;2392;52.578;13.426;2022-09-09T00:57:52;15.50;99.90
4757;DHT22;2392;52.578;13.426;2022-09-09T01:00:24;15.50;99.90
4757;DHT22;2392;52.578;13.426;2022-09-09T01:03:10;15.50;99.90
4757;DHT22;2392;52.578;13.426;2022-09-09T01:05:46;15.50;99.90
4757;DHT22;2392;52.578;13.426;2022-09-09T01:08:39;15.50;99.90
4757;DHT22;2392;52.578;13.426;2022-09-09T01:11:12;15.40;99.90
4757;DHT22;2392;52.578;13.426;2022-09-09T01:13:45;15.40;99.90
4757;DHT22;2392;52.578;13.426;2022-09-09T01:16:13;15.40;99.90
4757;DHT22;2392;52.578;13.426;2022-09-09T01:18:45;15.40;99.90
4757;DHT22;2392;52.578;13.426;2022-09-09T01:21:18;15.40;99.90
4757;DHT22;2392;52.578;13.426;2022-09-09T01:24:04;15.40;99.90
4757;DHT22;2392;52.578;13.426;2022-09-09T01:26:52;15.30;99.90
4757;DHT22;2392;52.578;13.426;2022-09-09T01:29:24;15.30;99.90
4757;DHT22;2392;52.578;13.426;2022-09-09T01:31:54;15.30;99.90
4757;DHT22;2392;52.578;13.426;2022-09-09T01:34:22;15.30;99.90
4757;DHT22;2392;52.578;13.426;2022-09-09T01:36:56;15.30;99.90
4757;DHT22;2392;52.578;13.426;2022-09-09T01:39:25;15.30;99.90
4757;DHT22;2392;52.578;13.426;2022-09-09T01:42:01;15.20;99.90
4757;DHT22;2392;52.578;13.426;2022-09-09T01:44:30;15.20;99.90
4757;DHT22;2392;52.578;13.426;2022-09-09T01:46:57;15.20;99.90
4757;DHT22;2392;52.578;13.426;2022-09-09T01:49:24;15.20;99.90
4757;DHT22;2392;52.578;13.426;2022-09-09T01:51:52;15.20;99.90
4757;DHT22;2392;52.578;13.426;2022-09-09T01:54:29;15.20;99.90
4757;DHT22;2392;52.578;13.426;2022-09-09T01:57:05;15.20;99.90
4757;DHT22;2392;52.578;13.426;2022-09-09T01:59:45;15.30;99.90
4757;DHT22;2392;52.578;13.426;2022-09-09T02:02:18;15.30;99.90
4757;DHT22;2392;52.578;13.426;2022-09-09T02:05:02;15.30;99.90
4757;DHT22;2392;52.578;13.426;2022-09-09T02:07:38;15.30;99.90
4757;DHT22;2392;52.578;13.426;2022-09-09T02:10:20;15.30;99.90
4757;DHT22;2392;52.578;13.426;2022-09-09T02:13:03;15.40;99.90
4757;DHT22;2392;52.578;13.426;2022-09-09T02:15:35;15.30;99.90
4757;DHT22;2392;52.578;13.426;2022-09-09T02:18:07;15.30;99.90
4757;DHT22;2392;52.578;13.426;2022-09-09T02:20:37;15.30;99.90
4757;DHT22;2392;52.578;13.426;2022-09-09T02:23:05;15.20;99.90
4757;DHT22;2392;52.578;13.426;2022-09-09T02:25:36;15.20;99.90
4757;DHT22;2392;52.578;13.426;2022-09-09T02:28:16;15.20;99.90
4757;DHT22;2392;52.578;13.426;2022-09-09T02:30:46;15.20;99.90
4757;DHT22;2392;52.578;13.426;2022-09-09T02:33:15;15.10;99.90
4757;DHT22;2392;52.578;13.426;2022-09-09T02:35:47;15.10;99.90
4757;DHT22;2392;52.578;13.426;2022-09-09T02:38:18;15.10;99.90
4757;DHT22;2392;52.578;13.426;2022-09-09T02:40:56;15.10;99.90
4757;DHT22;2392;52.578;13.426;2022-09-09T02:43:25;15.10;99.90
4757;DHT22;2392;52.578;13.426;2022-09-09T02:45:57;15.10;99.90
4757;DHT22;2392;52.578;13.426;2022-09-09T02:48:34;15.10;99.90
4757;DHT22;2392;52.578;13.426;2022-09-09T02:51:08;15.10;99.90
4757;DHT22;2392;52.578;13.426;2022-09-09T02:53:42;15.00;99.90
4757;DHT22;2392;52.578;13.426;2022-09-09T02:56:14;15.00;99.90
4757;DHT22;2392;52.578;13.426;2022-09-09T02:58:44;14.90;99.90
4757;DHT22;2392;52.578;13.426;2022-09-09T03:01:12;14.90;99.90
4757;DHT22;2392;52.578;13.426;2022-09-09T03:03:40;14.90;99.90
4757;DHT22;2392;52.578;13.426;2022-09-09T03:06:11;14.90;99.90
4757;DHT22;2392;52.578;13.426;2022-09-09T03:08:39;15.00;99.90
4757;DHT22;2392;52.578;13.426;2022-09-09T03:11:06;15.00;99.90
4757;DHT22;2392;52.578;13.426;2022-09-09T03:13:36;15.00;99.90
4757;DHT22;2392;52.578;13.426;2022-09-09T03:16:05;15.10;99.90
4757;DHT22;2392;52.578;13.426;2022-09-09T03:18:39;15.00;99.90
4757;DHT22;2392;52.578;13.426;2022-09-09T03:21:05;15.00;99.90
4757;DHT22;2392;52.578;13.426;2022-09-09T03:23:33;15.00;99.90
4757;DHT22;2392;52.578;13.426;2022-09-09T03:26:02;14.90;99.90
4757;DHT22;2392;52.578;13.426;2022-09-09T03:28:38;14.90;99.90
4757;DHT22;2392;52.578;13.426;2022-09-09T03:31:07;14.80;99.90
4757;DHT22;2392;52.578;13.426;2022-09-09T03:33:38;14.80;99.90
4757;DHT22;2392;52.578;13.426;2022-09-09T03:36:07;14.80;99.90
4757;DHT22;2392;52.578;13.426;2022-09-09T03:38:35;14.80;99.90
4757;DHT22;2392;52.578;13.426;2022-09-09T03:41:02;14.80;99.90
4757;DHT22;2392;52.578;13.426;2022-09-09T03:43:32;14.70;99.90
4757;DHT22;2392;52.578;13.426;2022-09-09T03:45:59;14.70;99.90
4757;DHT22;2392;52.578;13.426;2022-09-09T03:48:29;14.70;99.90
4757;DHT22;2392;52.578;13.426;2022-09-09T03:50:57;14.70;99.90
4757;DHT22;2392;52.578;13.426;2022-09-09T03:53:27;14.70;99.90
4757;DHT22;2392;52.578;13.426;2022-09-09T03:55:56;14.70;99.90
4757;DHT22;2392;52.578;13.426;2022-09-09T03:58:27;14.70;99.90
4757;DHT22;2392;52.578;13.426;2022-09-09T04:01:01;14.70;99.90
4757;DHT22;2392;52.578;13.426;2022-09-09T04:06:09;14.70;99.90
4757;DHT22;2392;52.578;13.426;2022-09-09T04:08:39;14.70;99.90
4757;DHT22;2392;52.578;13.426;2022-09-09T04:11:07;14.70;99.90
4757;DHT22;2392;52.578;13.426;2022-09-09T04:13:37;14.70;99.90
4757;DHT22;2392;52.578;13.426;2022-09-09T04:16:06;14.70;99.90
4757;DHT22;2392;52.578;13.426;2022-09-09T04:18:35;14.70;99.90
4757;DHT22;2392;52.578;13.426;2022-09-09T04:21:03;14.70;99.90
4757;DHT22;2392;52.578;13.426;2022-09-09T04:23:34;14.70;99.90
4757;DHT22;2392;52.578;13.426;2022-09-09T04:26:02;14.70;99.90
4757;DHT22;2392;52.578;13.426;2022-09-09T04:28:33;14.70;99.90
4757;DHT22;2392;52.578;13.426;2022-09-09T04:31:06;14.80;99.90
4757;DHT22;2392;52.578;13.426;2022-09-09T04:33:35;14.80;99.90
4757;DHT22;2392;52.578;13.426;2022-09-09T04:36:04;14.80;99.90
4757;DHT22;2392;52.578;13.426;2022-09-09T04:38:32;14.80;99.90
4757;DHT22;2392;52.578;13.426;2022-09-09T04:41:00;14.80;99.90
4757;DHT22;2392;52.578;13.426;2022-09-09T04:43:27;14.80;99.90
4757;DHT22;2392;52.578;13.426;2022-09-09T04:45:57;14.80;99.90
4757;DHT22;2392;52.578;13.426;2022-09-09T04:48:25;14.70;99.90
4757;DHT22;2392;52.578;13.426;2022-09-09T04:50:57;14.70;99.90
4757;DHT22;2392;52.578;13.426;2022-09-09T04:53:25;14.70;99.90
4757;DHT22;2392;52.578;13.426;2022-09-09T04:56:01;14.70;99.90
4757;DHT22;2392;52.578;13.426;2022-09-09T04:58:29;14.70;99.90
4757;DHT22;2392;52.578;13.426;2022-09-09T05:01:03;14.70;99.90
4757;DHT22;2392;52.578;13.426;2022-09-09T05:03:30;14.70;99.90
4757;DHT22;2392;52.578;13.426;2022-09-09T05:06:03;14.70;99.90
4757;DHT22;2392;52.578;13.426;2022-09-09T05:08:31;14.70;99.90
4757;DHT22;2392;52.578;13.426;2022-09-09T05:10:59;14.70;99.90
4757;DHT22;2392;52.578;13.426;2022-09-09T05:13:26;14.70;99.90
4757;DHT22;2392;52.578;13.426;2022-09-09T05:15:54;14.70;99.90
4757;DHT22;2392;52.578;13.426;2022-09-09T05:18:22;14.70;99.90
4757;DHT22;2392;52.578;13.426;2022-09-09T05:20:49;14.70;99.90
4757;DHT22;2392;52.578;13.426;2022-09-09T05:23:17;14.70;99.90
4757;DHT22;2392;52.578;13.426;2022-09-09T05:25:52;14.70;99.90
4757;DHT22;2392;52.578;13.426;2022-09-09T05:28:22;14.80;99.90
4757;DHT22;2392;52.578;13.426;2022-09-09T05:30:56;14.80;99.90
4757;DHT22;2392;52.578;13.426;2022-09-09T05:33:24;14.90;99.90
4757;DHT22;2392;52.578;13.426;2022-09-09T05:35:56;14.90;99.90
4757;DHT22;2392;52.578;13.426;2022-09-09T05:38:23;15.00;99.90
4757;DHT22;2392;52.578;13.426;2022-09-09T05:40:51;15.00;99.90
4757;DHT22;2392;52.578;13.426;2022-09-09T05:43:18;15.10;99.90
4757;DHT22;2392;52.578;13.426;2022-09-09T05:45:48;15.10;99.90
4757;DHT22;2392;52.578;13.426;2022-09-09T05:48:15;15.20;99.90
4757;DHT22;2392;52.578;13.426;2022-09-09T05:50:42;15.20;99.90
4757;DHT22;2392;52.578;13.426;2022-09-09T05:53:10;15.20;99.90
4757;DHT22;2392;52.578;13.426;2022-09-09T05:55:37;15.20;99.90
4757;DHT22;2392;52.578;13.426;2022-09-09T05:58:04;15.20;99.90
4757;DHT22;2392;52.578;13.426;2022-09-09T06:00:31;15.30;99.90
4757;DHT22;2392;52.578;13.426;2022-09-09T06:03:00;15.30;99.90
4757;DHT22;2392;52.578;13.426;2022-09-09T06:05:27;15.30;99.90
4757;DHT22;2392;52.578;13.426;2022-09-09T06:07:54;15.40;99.90
4757;DHT22;2392;52.578;13.426;2022-09-09T06:10:22;15.40;99.90
4757;DHT22;2392;52.578;13.426;2022-09-09T06:12:52;15.40;99.90
4757;DHT22;2392;52.578;13.426;2022-09-09T06:15:19;15.40;99.90
4757;DHT22;2392;52.578;13.426;2022-09-09T06:17:46;15.50;99.90
4757;DHT22;2392;52.578;13.426;2022-09-09T06:20:14;15.50;99.90
4757;DHT22;2392;52.578;13.426;2022-09-09T06:22:41;15.50;99.90
4757;DHT22;2392;52.578;13.426;2022-09-09T06:25:09;15.60;99.90
4757;DHT22;2392;52.578;13.426;2022-09-09T06:27:38;15.60;99.90
4757;DHT22;2392;52.578;13.426;2022-09-09T06:30:06;15.60;99.90
4757;DHT22;2392;52.578;13.426;2022-09-09T06:32:33;15.70;99.90
4757;DHT22;2392;52.578;13.426;2022-09-09T06:35:01;15.70;99.90
4757;DHT22;2392;52.578;13.426;2022-09-09T06:37:29;15.70;99.90
4757;DHT22;2392;52.578;13.426;2022-09-09T06:39:57;15.80;99.90
4757;DHT22;2392;52.578;13.426;2022-09-09T06:42:24;15.80;99.90
4757;DHT22;2392;52.578;13.426;2022-09-09T06:45:03;15.90;99.90
4757;DHT22;2392;52.578;13.426;2022-09-09T06:47:38;15.90;99.90
4757;DHT22;2392;52.578;13.426;2022-09-09T06:50:07;16.00;99.90
4757;DHT22;2392;52.578;13.426;2022-09-09T06:52:36;16.00;99.90
4757;DHT22;2392;52.578;13.426;2022-09-09T06:55:04;16.10;99.90
4757;DHT22;2392;52.578;13.426;2022-09-09T06:57:32;16.10;99.90
4757;DHT22;2392;52.578;13.426;2022-09-09T07:00:00;16.20;99.90
4757;DHT22;2392;52.578;13.426;2022-09-09T07:02:27;16.20;99.90
4757;DHT22;2392;52.578;13.426;2022-09-09T07:04:54;16.20;99.90
4757;DHT22;2392;52.578;13.426;2022-09-09T07:07:23;16.30;99.90
4757;DHT22;2392;52.578;13.426;2022-09-09T07:09:53;16.30;99.90
4757;DHT22;2392;52.578;13.426;2022-09-09T07:12:20;16.40;99.90
4757;DHT22;2392;52.578;13.426;2022-09-09T07:14:54;16.50;99.90
4757;DHT22;2392;52.578;13.426;2022-09-09T07:17:21;16.60;99.90
4757;DHT22;2392;52.578;13.426;2022-09-09T07:19:49;16.70;99.90
4757;DHT22;2392;52.578;13.426;2022-09-09T07:22:16;16.70;99.90
4757;DHT22;2392;52.578;13.426;2022-09-09T07:24:45;16.80;99.90
4757;DHT22;2392;52.578;13.426;2022-09-09T07:27:15;16.90;99.90
4757;DHT22;2392;52.578;13.426;2022-09-09T07:29:42;17.00;99.90
4757;DHT22;2392;52.578;13.426;2022-09-09T07:32:11;17.00;99.90
4757;DHT22;2392;52.578;13.426;2022-09-09T07:34:39;17.10;99.90
4757;DHT22;2392;52.578;13.426;2022-09-09T07:37:06;17.20;99.90
4757;DHT22;2392;52.578;13.426;2022-09-09T07:39:35;17.30;99.90
4757;DHT22;2392;52.578;13.426;2022-09-09T07:42:02;17.30;99.90
4757;DHT22;2392;52.578;13.426;2022-09-09T07:44:31;17.40;99.90
4757;DHT22;2392;52.578;13.426;2022-09-09T07:47:08;17.50;99.90
4757;DHT22;2392;52.578;13.426;2022-09-09T07:49:39;17.60;99.90
4757;DHT22;2392;52.578;13.426;2022-09-09T07:52:07;17.80;99.90
4757;DHT22;2392;52.578;13.426;2022-09-09T07:54:35;17.90;99.90
4757;DHT22;2392;52.578;13.426;2022-09-09T07:57:04;18.00;99.90
4757;DHT22;2392;52.578;13.426;2022-09-09T07:59:36;18.20;99.90
4757;DHT22;2392;52.578;13.426;2022-09-09T08:02:03;18.20;99.90
4757;DHT22;2392;52.578;13.426;2022-09-09T08:04:32;18.30;99.90
4757;DHT22;2392;52.578;13.426;2022-09-09T08:07:01;18.30;99.90
4757;DHT22;2392;52.578;13.426;2022-09-09T08:09:32;18.40;99.90
4757;DHT22;2392;52.578;13.426;2022-09-09T08:12:09;18.50;99.90
4757;DHT22;2392;52.578;13.426;2022-09-09T08:14:39;18.50;99.90
4757;DHT22;2392;52.578;13.426;2022-09-09T08:17:06;18.60;99.90
4757;DHT22;2392;52.578;13.426;2022-09-09T08:19:33;18.60;99.90
4757;DHT22;2392;52.578;13.426;2022-09-09T08:22:03;18.70;99.90
4757;DHT22;2392;52.578;13.426;2022-09-09T08:24:32;18.70;99.90
4757;DHT22;2392;52.578;13.426;2022-09-09T08:26:59;18.70;99.90
4757;DHT22;2392;52.578;13.426;2022-09-09T08:29:27;18.80;99.90
4757;DHT22;2392;52.578;13.426;2022-09-09T08:31:57;18.80;99.90
4757;DHT22;2392;52.578;13.426;2022-09-09T08:34:26;18.90;99.90
4757;DHT22;2392;52.578;13.426;2022-09-09T08:36:56;19.00;99.90
4757;DHT22;2392;52.578;13.426;2022-09-09T08:39:30;19.00;99.90
4757;DHT22;2392;52.578;13.426;2022-09-09T08:42:16;19.00;99.90
4757;DHT22;2392;52.578;13.426;2022-09-09T08:44:57;19.00;99.90
4757;DHT22;2392;52.578;13.426;2022-09-09T08:47:36;19.00;99.90
4757;DHT22;2392;52.578;13.426;2022-09-09T08:50:16;19.00;99.90
4757;DHT22;2392;52.578;13.426;2022-09-09T08:52:51;19.10;99.90
4757;DHT22;2392;52.578;13.426;2022-09-09T08:55:28;19.10;99.90
4757;DHT22;2392;52.578;13.426;2022-09-09T08:57:59;19.20;99.90
4757;DHT22;2392;52.578;13.426;2022-09-09T09:00:35;19.30;99.90
4757;DHT22;2392;52.578;13.426;2022-09-09T09:03:14;19.20;99.90
4757;DHT22;2392;52.578;13.426;2022-09-09T09:05:47;19.30;99.90
4757;DHT22;2392;52.578;13.426;2022-09-09T09:08:24;19.30;99.90
4757;DHT22;2392;52.578;13.426;2022-09-09T09:10:56;19.40;99.90
4757;DHT22;2392;52.578;13.426;2022-09-09T09:13:31;19.40;99.90
4757;DHT22;2392;52.578;13.426;2022-09-09T09:16:10;19.40;99.90
4757;DHT22;2392;52.578;13.426;2022-09-09T09:18:41;19.40;99.90
4757;DHT22;2392;52.578;13.426;2022-09-09T09:21:12;19.40;99.90
4757;DHT22;2392;52.578;13.426;2022-09-09T09:23:47;19.40;99.90
4757;DHT22;2392;52.578;13.426;2022-09-09T09:26:17;19.50;99.90
4757;DHT22;2392;52.578;13.426;2022-09-09T09:28:44;19.70;99.90
4757;DHT22;2392;52.578;13.426;2022-09-09T09:31:15;19.80;99.90
4757;DHT22;2392;52.578;13.426;2022-09-09T09:33:50;20.00;99.90
4757;DHT22;2392;52.578;13.426;2022-09-09T09:36:20;20.00;99.90
4757;DHT22;2392;52.578;13.426;2022-09-09T09:38:53;20.10;99.90
4757;DHT22;2392;52.578;13.426;2022-09-09T09:41:33;20.20;99.90
4757;DHT22;2392;52.578;13.426;2022-09-09T09:44:01;20.20;99.90
4757;DHT22;2392;52.578;13.426;2022-09-09T09:46:29;20.30;99.90
4757;DHT22;2392;52.578;13.426;2022-09-09T09:49:09;20.30;99.90
4757;DHT22;2392;52.578;13.426;2022-09-09T09:51:38;20.40;99.90
4757;DHT22;2392;52.578;13.426;2022-09-09T09:54:13;20.50;99.90
4757;DHT22;2392;52.578;13.426;2022-09-09T09:56:45;20.70;99.90
4757;DHT22;2392;52.578;13.426;2022-09-09T09:59:21;20.80;99.90
4757;DHT22;2392;52.578;13.426;2022-09-09T10:01:48;21.10;99.90
4757;DHT22;2392;52.578;13.426;2022-09-09T10:04:18;21.50;99.90
4757;DHT22;2392;52.578;13.426;2022-09-09T10:06:47;22.10;99.90
4757;DHT22;2392;52.578;13.426;2022-09-09T10:09:23;22.80;99.90
4757;DHT22;2392;52.578;13.426;2022-09-09T10:11:57;23.80;99.90
4757;DHT22;2392;52.578;13.426;2022-09-09T10:14:34;24.70;99.90
4757;DHT22;2392;52.578;13.426;2022-09-09T10:17:15;25.60;99.90
4757;DHT22;2392;52.578;13.426;2022-09-09T10:19:53;25.90;99.90
4757;DHT22;2392;52.578;13.426;2022-09-09T10:22:28;26.40;99.90
4757;DHT22;2392;52.578;13.426;2022-09-09T10:25:10;27.20;99.90
4757;DHT22;2392;52.578;13.426;2022-09-09T10:27:47;27.60;99.90
4757;DHT22;2392;52.578;13.426;2022-09-09T10:30:21;27.50;99.90
4757;DHT22;2392;52.578;13.426;2022-09-09T10:32:51;27.70;99.90
4757;DHT22;2392;52.578;13.426;2022-09-09T10:35:30;28.40;99.90
4757;DHT22;2392;52.578;13.426;2022-09-09T10:38:14;29.20;99.90
4757;DHT22;2392;52.578;13.426;2022-09-09T10:40:48;30.00;99.90
4757;DHT22;2392;52.578;13.426;2022-09-09T10:43:26;30.00;99.90
4757;DHT22;2392;52.578;13.426;2022-09-09T10:46:01;29.40;99.40
4757;DHT22;2392;52.578;13.426;2022-09-09T10:48:53;28.10;99.90
4757;DHT22;2392;52.578;13.426;2022-09-09T10:51:29;27.10;99.90
4757;DHT22;2392;52.578;13.426;2022-09-09T10:54:13;26.60;99.90
4757;DHT22;2392;52.578;13.426;2022-09-09T10:56:48;27.00;99.90
4757;DHT22;2392;52.578;13.426;2022-09-09T10:59:19;27.60;99.90
4757;DHT22;2392;52.578;13.426;2022-09-09T11:01:52;28.00;99.90
4757;DHT22;2392;52.578;13.426;2022-09-09T11:04:25;27.50;99.90
4757;DHT22;2392;52.578;13.426;2022-09-09T11:06:55;26.90;99.90
4757;DHT22;2392;52.578;13.426;2022-09-09T11:09:25;26.70;99.90
4757;DHT22;2392;52.578;13.426;2022-09-09T11:11:55;27.20;99.90
4757;DHT22;2392;52.578;13.426;2022-09-09T11:14:28;28.50;99.90
4757;DHT22;2392;52.578;13.426;2022-09-09T11:16:59;29.40;99.00
4757;DHT22;2392;52.578;13.426;2022-09-09T11:19:30;30.00;97.20
4757;DHT22;2392;52.578;13.426;2022-09-09T11:22:05;30.60;96.10
4757;DHT22;2392;52.578;13.426;2022-09-09T11:24:37;30.90;94.70
4757;DHT22;2392;52.578;13.426;2022-09-09T11:27:09;31.10;94.60
4757;DHT22;2392;52.578;13.426;2022-09-09T11:30:01;31.30;93.90
4757;DHT22;2392;52.578;13.426;2022-09-09T11:32:48;30.90;93.10
4757;DHT22;2392;52.578;13.426;2022-09-09T11:35:28;30.80;93.30
4757;DHT22;2392;52.578;13.426;2022-09-09T11:38:16;30.80;93.20
4757;DHT22;2392;52.578;13.426;2022-09-09T11:40:44;30.60;93.40
4757;DHT22;2392;52.578;13.426;2022-09-09T11:43:14;30.40;92.40
4757;DHT22;2392;52.578;13.426;2022-09-09T11:45:43;29.80;93.50
4757;DHT22;2392;52.578;13.426;2022-09-09T11:48:23;29.00;93.30
4757;DHT22;2392;52.578;13.426;2022-09-09T11:50:58;28.10;94.20
4757;DHT22;2392;52.578;13.426;2022-09-09T11:53:27;27.30;95.80
4757;DHT22;2392;52.578;13.426;2022-09-09T11:56:08;26.50;96.30
4757;DHT22;2392;52.578;13.426;2022-09-09T11:58:42;25.60;97.70
4757;DHT22;2392;52.578;13.426;2022-09-09T12:01:35;25.10;98.70
4757;DHT22;2392;52.578;13.426;2022-09-09T12:04:13;24.60;99.90
4757;DHT22;2392;52.578;13.426;2022-09-09T12:06:46;24.50;99.90
4757;DHT22;2392;52.578;13.426;2022-09-09T12:09:23;24.40;99.90
4757;DHT22;2392;52.578;13.426;2022-09-09T12:11:51;24.50;99.90
4757;DHT22;2392;52.578;13.426;2022-09-09T12:14:23;24.50;99.90
4757;DHT22;2392;52.578;13.426;2022-09-09T12:17:09;24.40;99.90
4757;DHT22;2392;52.578;13.426;2022-09-09T12:19:36;24.10;99.90
4757;DHT22;2392;52.578;13.426;2022-09-09T12:22:09;24.10;99.90
4757;DHT22;2392;52.578;13.426;2022-09-09T12:24:43;23.90;99.90
4757;DHT22;2392;52.578;13.426;2022-09-09T12:27:17;23.80;99.90
4757;DHT22;2392;52.578;13.426;2022-09-09T12:29:49;23.70;99.90
4757;DHT22;2392;52.578;13.426;2022-09-09T12:32:24;23.70;99.90
4757;DHT22;2392;52.578;13.426;2022-09-09T12:34:54;23.80;99.90
4757;DHT22;2392;52.578;13.426;2022-09-09T12:37:28;23.90;99.90
4757;DHT22;2392;52.578;13.426;2022-09-09T12:39:59;23.90;99.90
4757;DHT22;2392;52.578;13.426;2022-09-09T12:42:28;23.80;99.90
4757;DHT22;2392;52.578;13.426;2022-09-09T12:44:56;23.80;99.90
4757;DHT22;2392;52.578;13.426;2022-09-09T12:47:29;23.90;99.90
4757;DHT22;2392;52.578;13.426;2022-09-09T12:49:57;23.90;99.90
4757;DHT22;2392;52.578;13.426;2022-09-09T12:52:28;23.90;99.90
4757;DHT22;2392;52.578;13.426;2022-09-09T12:54:59;23.90;99.90
4757;DHT22;2392;52.578;13.426;2022-09-09T12:57:31;23.90;99.90
4757;DHT22;2392;52.578;13.426;2022-09-09T13:00:06;23.80;99.90
4757;DHT22;2392;52.578;13.426;2022-09-09T13:02:35;23.70;99.90
4757;DHT22;2392;52.578;13.426;2022-09-09T13:05:15;23.60;99.90
4757;DHT22;2392;52.578;13.426;2022-09-09T13:07:43;23.60;99.90
4757;DHT22;2392;52.578;13.426;2022-09-09T13:10:13;23.60;99.90
4757;DHT22;2392;52.578;13.426;2022-09-09T13:12:41;23.50;99.90
4757;DHT22;2392;52.578;13.426;2022-09-09T13:15:19;23.50;99.90
4757;DHT22;2392;52.578;13.426;2022-09-09T13:17:56;23.50;99.90
4757;DHT22;2392;52.578;13.426;2022-09-09T13:20:24;23.30;99.90
4757;DHT22;2392;52.578;13.426;2022-09-09T13:22:52;23.30;99.90
4757;DHT22;2392;52.578;13.426;2022-09-09T13:25:26;23.20;99.90
4757;DHT22;2392;52.578;13.426;2022-09-09T13:27:56;23.20;99.90
4757;DHT22;2392;52.578;13.426;2022-09-09T13:30:26;23.10;99.90
4757;DHT22;2392;52.578;13.426;2022-09-09T13:35:47;22.90;99.90
4757;DHT22;2392;52.578;13.426;2022-09-09T13:38:16;22.80;99.90
4757;DHT22;2392;52.578;13.426;2022-09-09T13:40:54;22.80;99.90
4757;DHT22;2392;52.578;13.426;2022-09-09T13:43:24;22.80;99.90
4757;DHT22;2392;52.578;13.426;2022-09-09T13:45:56;22.80;99.90
4757;DHT22;2392;52.578;13.426;2022-09-09T13:48:24;22.80;99.90
4757;DHT22;2392;52.578;13.426;2022-09-09T13:50:55;22.80;99.90
4757;DHT22;2392;52.578;13.426;2022-09-09T13:53:22;22.80;99.90
4757;DHT22;2392;52.578;13.426;2022-09-09T13:55:50;22.80;99.90
4757;DHT22;2392;52.578;13.426;2022-09-09T13:58:19;22.90;99.90
4757;DHT22;2392;52.578;13.426;2022-09-09T14:00:47;23.10;99.90
4757;DHT22;2392;52.578;13.426;2022-09-09T14:03:15;23.40;99.90
4757;DHT22;2392;52.578;13.426;2022-09-09T14:05:44;23.60;99.90
4757;DHT22;2392;52.578;13.426;2022-09-09T14:08:16;23.80;99.90
4757;DHT22;2392;52.578;13.426;2022-09-09T14:10:46;23.90;99.90
4757;DHT22;2392;52.578;13.426;2022-09-09T14:13:13;24.00;99.90
4757;DHT22;2392;52.578;13.426;2022-09-09T14:15:42;24.10;99.90
4757;DHT22;2392;52.578;13.426;2022-09-09T14:18:11;24.20;99.90
4757;DHT22;2392;52.578;13.426;2022-09-09T14:20:39;24.30;99.90
4757;DHT22;2392;52.578;13.426;2022-09-09T14:23:10;24.30;99.90
4757;DHT22;2392;52.578;13.426;2022-09-09T14:25:40;24.30;99.90
4757;DHT22;2392;52.578;13.426;2022-09-09T14:28:09;24.40;99.90
4757;DHT22;2392;52.578;13.426;2022-09-09T14:30:38;24.50;99.90
4757;DHT22;2392;52.578;13.426;2022-09-09T14:33:06;24.60;99.90
4757;DHT22;2392;52.578;13.426;2022-09-09T14:35:33;24.50;99.90
4757;DHT22;2392;52.578;13.426;2022-09-09T14:38:02;24.50;99.90
4757;DHT22;2392;52.578;13.426;2022-09-09T14:40:29;24.40;99.90
4757;DHT22;2392;52.578;13.426;2022-09-09T14:42:56;24.20;99.90
4757;DHT22;2392;52.578;13.426;2022-09-09T14:45:24;24.10;99.90
4757;DHT22;2392;52.578;13.426;2022-09-09T14:47:52;23.80;99.90
4757;DHT22;2392;52.578;13.426;2022-09-09T14:50:21;23.60;99.90
4757;DHT22;2392;52.578;13.426;2022-09-09T14:52:49;23.50;99.90
4757;DHT22;2392;52.578;13.426;2022-09-09T14:55:16;23.40;99.90
4757;DHT22;2392;52.578;13.426;2022-09-09T14:57:43;23.20;99.90
4757;DHT22;2392;52.578;13.426;2022-09-09T15:00:11;23.10;99.90
4757;DHT22;2392;52.578;13.426;2022-09-09T15:02:39;23.10;99.90
4757;DHT22;2392;52.578;13.426;2022-09-09T15:05:06;23.10;99.90
4757;DHT22;2392;52.578;13.426;2022-09-09T15:07:35;23.00;99.90
4757;DHT22;2392;52.578;13.426;2022-09-09T15:10:02;22.90;99.90
4757;DHT22;2392;52.578;13.426;2022-09-09T15:12:29;22.90;99.90
4757;DHT22;2392;52.578;13.426;2022-09-09T15:14:57;22.80;99.90
4757;DHT22;2392;52.578;13.426;2022-09-09T15:17:24;22.80;99.90
4757;DHT22;2392;52.578;13.426;2022-09-09T15:19:53;22.70;99.90
4757;DHT22;2392;52.578;13.426;2022-09-09T15:22:20;22.70;99.90
4757;DHT22;2392;52.578;13.426;2022-09-09T15:24:49;22.70;99.90
4757;DHT22;2392;52.578;13.426;2022-09-09T15:27:16;22.80;99.90
4757;DHT22;2392;52.578;13.426;2022-09-09T15:29:43;22.80;99.90
4757;DHT22;2392;52.578;13.426;2022-09-09T15:32:10;22.90;99.90
4757;DHT22;2392;52.578;13.426;2022-09-09T15:34:37;22.90;99.90
4757;DHT22;2392;52.578;13.426;2022-09-09T15:37:04;23.00;99.90
4757;DHT22;2392;52.578;13.426;2022-09-09T15:39:32;23.00;99.90
4757;DHT22;2392;52.578;13.426;2022-09-09T15:42:00;23.10;99.90
4757;DHT22;2392;52.578;13.426;2022-09-09T15:44:27;23.10;99.90
4757;DHT22;2392;52.578;13.426;2022-09-09T15:46:54;23.10;99.90
4757;DHT22;2392;52.578;13.426;2022-09-09T15:49:22;23.00;99.90
4757;DHT22;2392;52.578;13.426;2022-09-09T15:51:52;23.00;99.90
4757;DHT22;2392;52.578;13.426;2022-09-09T15:54:20;22.90;99.90
4757;DHT22;2392;52.578;13.426;2022-09-09T15:56:51;22.90;99.90
4757;DHT22;2392;52.578;13.426;2022-09-09T15:59:19;22.90;99.90
4757;DHT22;2392;52.578;13.426;2022-09-09T16:01:46;22.80;99.90
4757;DHT22;2392;52.578;13.426;2022-09-09T16:04:17;22.80;99.90
4757;DHT22;2392;52.578;13.426;2022-09-09T16:06:50;22.70;99.90
4757;DHT22;2392;52.578;13.426;2022-09-09T16:09:17;22.70;99.90
4757;DHT22;2392;52.578;13.426;2022-09-09T16:11:44;22.60;99.90
4757;DHT22;2392;52.578;13.426;2022-09-09T16:14:12;22.50;99.90
4757;DHT22;2392;52.578;13.426;2022-09-09T16:16:42;22.50;99.90